createdAt,value
2022-12-16T00:02:01.437Z,95520.13
2022-12-16T00:04:28.349Z,95507.97
2022-12-16T00:06:54.864Z,95511.53
2022-12-16T00:09:21.435Z,95511.53
2022-12-16T00:11:47.911Z,95514.88
2022-12-16T00:14:14.426Z,95514.94
2022-12-16T00:16:41.004Z,95520.72
2022-12-16T00:19:07.717Z,95527.72
2022-12-16T00:21:34.999Z,95531.16
2022-12-16T00:24:01.488Z,95532.75
2022-12-16T00:26:29.780Z,95532.97
2022-12-16T00:28:56.319Z,95538.06
2022-12-16T00:31:23.697Z,95548.44
2022-12-16T00:33:50.273Z,95550.44
2022-12-16T00:36:17.083Z,95550.19
2022-12-16T00:38:43.560Z,95548.19
2022-12-16T00:41:10.134Z,95554.28
2022-12-16T00:43:36.812Z,95552.00
2022-12-16T00:46:04.051Z,95551.09
2022-12-16T00:48:30.620Z,95550.03
2022-12-16T00:50:57.184Z,95558.63
2022-12-16T00:53:25.035Z,95562.13
2022-12-16T00:55:53.055Z,95562.44
2022-12-16T00:58:20.224Z,95558.22
2022-12-16T01:00:46.794Z,95556.19
2022-12-16T01:03:18.132Z,95561.63
2022-12-16T01:05:47.762Z,95554.78
2022-12-16T01:08:14.285Z,95552.09
2022-12-16T01:10:40.774Z,95557.19
2022-12-16T01:13:07.293Z,95557.34
2022-12-16T01:15:34.791Z,95558.94
2022-12-16T01:18:01.320Z,95554.47
2022-12-16T01:20:27.816Z,95556.28
2022-12-16T01:22:54.309Z,95557.19
2022-12-16T01:25:21.435Z,95555.19
2022-12-16T01:27:47.982Z,95569.13
2022-12-16T01:30:14.441Z,95569.72
2022-12-16T01:32:41.021Z,95573.31
2022-12-16T01:35:29.458Z,95573.31
2022-12-16T01:37:54.605Z,95575.31
2022-12-16T01:40:24.297Z,95575.31
2022-12-16T01:42:50.781Z,95581.09
2022-12-16T01:45:35.409Z,95580.78
2022-12-16T01:48:20.784Z,95578.19
2022-12-16T01:50:48.847Z,95578.19
2022-12-16T01:53:15.728Z,95583.97
2022-12-16T01:55:48.507Z,95584.97
2022-12-16T01:58:27.882Z,95593.25
2022-12-16T02:00:54.700Z,95591.63
2022-12-16T02:03:22.342Z,95597.91
2022-12-16T02:05:49.840Z,95597.72
2022-12-16T02:08:19.220Z,95604.59
2022-12-16T02:11:22.992Z,95609.69
2022-12-16T02:13:58.479Z,95613.03
2022-12-16T02:16:33.352Z,95609.53
2022-12-16T02:19:46.049Z,95607.88
2022-12-16T02:22:48.967Z,95607.88
2022-12-16T02:25:33.887Z,95613.88
2022-12-16T02:28:22.432Z,95607.59
2022-12-16T02:31:31.610Z,95608.59
2022-12-16T02:34:21.880Z,95611.28
2022-12-16T02:37:15.120Z,95623.56
2022-12-16T02:40:22.969Z,95632.56
2022-12-16T02:43:00.904Z,95625.47
2022-12-16T02:45:31.297Z,95636.06
2022-12-16T02:47:57.872Z,95632.47
2022-12-16T02:50:41.357Z,95640.16
2022-12-16T02:53:09.849Z,95644.59
2022-12-16T02:55:55.280Z,95645.59
2022-12-16T02:58:24.559Z,95645.50
2022-12-16T03:01:21.645Z,95654.09
2022-12-16T03:03:53.305Z,95661.13
2022-12-16T03:06:21.141Z,95660.19
2022-12-16T03:08:53.646Z,95661.84
2022-12-16T03:11:20.611Z,95655.53
2022-12-16T03:13:51.942Z,95669.22
2022-12-16T03:16:22.108Z,95675.50
2022-12-16T03:18:55.011Z,95672.06
2022-12-16T03:21:24.589Z,95678.06
2022-12-16T03:24:07.686Z,95678.06
2022-12-16T03:26:41.533Z,95680.59
2022-12-16T03:29:21.961Z,95681.56
2022-12-16T03:31:55.145Z,95679.94
2022-12-16T03:34:45.358Z,95676.09
2022-12-16T03:37:13.741Z,95681.44
2022-12-16T03:39:49.421Z,95684.03
2022-12-16T03:42:16.288Z,95690.81
2022-12-16T03:44:47.973Z,95690.88
2022-12-16T03:47:19.824Z,95693.41
2022-12-16T03:49:49.873Z,95699.31
2022-12-16T03:52:16.351Z,95699.41
2022-12-16T03:54:42.901Z,95695.00
2022-12-16T03:57:14.988Z,95697.41
2022-12-16T03:59:42.872Z,95697.63
2022-12-16T04:02:09.570Z,95689.94
2022-12-16T04:04:36.309Z,95688.88
2022-12-16T04:07:20.533Z,95690.81
2022-12-16T04:09:48.128Z,95695.97
2022-12-16T04:12:33.404Z,95685.75
2022-12-16T04:15:38.129Z,95692.78
2022-12-16T04:18:24.247Z,95691.88
2022-12-16T04:21:13.687Z,95696.28
2022-12-16T04:24:07.079Z,95689.28
2022-12-16T04:26:53.892Z,95702.22
2022-12-16T04:29:20.441Z,95705.56
2022-12-16T04:31:47.068Z,95704.50
2022-12-16T04:34:25.561Z,95704.34
2022-12-16T04:37:18.201Z,95712.19
2022-12-16T04:40:03.940Z,95714.19
2022-12-16T04:42:49.342Z,95722.09
2022-12-16T04:45:35.004Z,95724.59
2022-12-16T04:48:21.790Z,95724.47
2022-12-16T04:51:06.505Z,95729.72
2022-12-16T04:53:51.217Z,95736.88
2022-12-16T04:56:36.055Z,95747.38
2022-12-16T04:59:20.856Z,95747.28
2022-12-16T05:02:05.783Z,95749.97
2022-12-16T05:04:50.856Z,95745.56
2022-12-16T05:07:38.497Z,95744.69
2022-12-16T05:10:25.301Z,95737.91
2022-12-16T05:13:13.140Z,95751.44
2022-12-16T05:15:58.984Z,95748.88
2022-12-16T05:18:44.230Z,95757.44
2022-12-16T05:21:29.190Z,95766.88
2022-12-16T05:24:14.015Z,95765.13
2022-12-16T05:26:58.817Z,95766.97
2022-12-16T05:29:43.560Z,95769.75
2022-12-16T05:32:28.327Z,95779.22
2022-12-16T05:35:13.066Z,95781.03
2022-12-16T05:37:57.923Z,95775.63
2022-12-16T05:40:42.806Z,95768.78
2022-12-16T05:43:27.709Z,95774.66
2022-12-16T05:46:12.601Z,95777.84
2022-12-16T05:48:57.907Z,95794.13
2022-12-16T05:51:42.684Z,95793.53
2022-12-16T05:54:27.646Z,95805.63
2022-12-16T05:57:12.312Z,95799.63
2022-12-16T05:59:57.643Z,95801.53
2022-12-16T06:02:42.669Z,95805.41
2022-12-16T06:05:27.670Z,95807.94
2022-12-16T06:08:13.085Z,95817.69
2022-12-16T06:10:57.911Z,95816.81
2022-12-16T06:13:42.827Z,95819.72
2022-12-16T06:16:27.542Z,95824.91
2022-12-16T06:19:12.743Z,95830.13
2022-12-16T06:21:57.490Z,95827.53
2022-12-16T06:24:42.395Z,95842.97
2022-12-16T06:27:27.254Z,95854.22
2022-12-16T06:30:12.105Z,95859.41
2022-12-16T06:32:57.138Z,95866.03
2022-12-16T06:35:41.789Z,95860.03
2022-12-16T06:38:26.674Z,95867.00
2022-12-16T06:41:11.476Z,95867.94
2022-12-16T06:43:56.321Z,95857.19
2022-12-16T06:46:41.126Z,95862.38
2022-12-16T06:49:25.913Z,95869.47
2022-12-16T06:52:10.884Z,95878.22
2022-12-16T06:54:55.710Z,95878.00
2022-12-16T06:57:40.599Z,95895.72
2022-12-16T07:00:26.362Z,95897.47
2022-12-16T07:03:11.253Z,95911.88
2022-12-16T07:05:56.252Z,95922.38
2022-12-16T07:08:41.066Z,95927.84
2022-12-16T07:11:25.786Z,95929.53
2022-12-16T07:14:10.716Z,95929.59
2022-12-16T07:16:55.656Z,95933.78
2022-12-16T07:19:40.749Z,95935.69
2022-12-16T07:22:25.515Z,95941.19
2022-12-16T07:25:10.906Z,95944.53
2022-12-16T07:27:56.043Z,95955.13
2022-12-16T07:30:40.785Z,95960.91
2022-12-16T07:33:25.662Z,95959.91
2022-12-16T07:36:10.439Z,95970.22
2022-12-16T07:38:55.258Z,95979.53
2022-12-16T07:41:40.083Z,95986.38
2022-12-16T07:44:24.861Z,95999.06
2022-12-16T07:47:09.819Z,96010.13
2022-12-16T07:49:55.500Z,96011.59
2022-12-16T07:52:41.211Z,96010.19
2022-12-16T07:55:26.395Z,96009.28
2022-12-16T07:58:11.088Z,96015.09
2022-12-16T08:00:55.964Z,96020.50
2022-12-16T08:03:41.389Z,96028.53
2022-12-16T08:06:26.456Z,96027.41
2022-12-16T08:09:11.213Z,96034.69
2022-12-16T08:11:55.991Z,96022.69
2022-12-16T08:14:40.897Z,96029.91
2022-12-16T08:17:25.738Z,96035.41
2022-12-16T08:20:10.513Z,96038.63
2022-12-16T08:23:02.896Z,96041.78
2022-12-16T08:25:47.778Z,96047.31
2022-12-16T08:28:32.558Z,96054.81
2022-12-16T08:31:17.406Z,96062.38
2022-12-16T08:34:02.561Z,96060.84
2022-12-16T08:36:47.348Z,96070.38
2022-12-16T08:39:32.313Z,96076.53
2022-12-16T08:42:17.467Z,96066.72
2022-12-16T08:45:02.357Z,96075.66
2022-12-16T08:47:47.203Z,96078.81
2022-12-16T08:50:31.970Z,96086.28
2022-12-16T08:53:16.754Z,96088.88
2022-12-16T09:03:50.215Z,96111.97
2022-12-16T09:06:40.392Z,96112.50
2022-12-16T09:13:06.805Z,96123.19
2022-12-16T09:23:24.113Z,96140.19
2022-12-16T09:29:56.114Z,96152.19
2022-12-16T09:39:30.170Z,96163.19
2022-12-16T09:42:24.614Z,96172.03
2022-12-16T09:48:47.186Z,96174.53
2022-12-16T09:55:41.683Z,96178.69
2022-12-16T09:58:30.475Z,96179.56
2022-12-16T10:09:36.834Z,96196.22
2022-12-16T10:12:40.421Z,96187.22
2022-12-16T10:15:47.609Z,96191.34
2022-12-16T10:18:54.066Z,96205.38
2022-12-16T10:21:55.978Z,96203.34
2022-12-16T10:24:57.160Z,96204.81
2022-12-16T10:27:56.421Z,96208.59
2022-12-16T10:30:41.330Z,96207.34
2022-12-16T10:33:29.439Z,96215.34
2022-12-16T10:36:15.262Z,96210.78
2022-12-16T10:39:08.162Z,96211.75
2022-12-16T10:41:56.606Z,96223.41
2022-12-16T10:44:48.117Z,96219.13
2022-12-16T10:47:33.380Z,96223.31
2022-12-16T10:50:18.909Z,96222.19
2022-12-16T10:53:12.665Z,96232.97
2022-12-16T10:56:12.792Z,96235.03
2022-12-16T10:59:17.645Z,96231.13
2022-12-16T11:02:18.777Z,96233.72
2022-12-16T11:05:05.448Z,96238.19
2022-12-16T11:07:57.826Z,96240.72
2022-12-16T11:11:01.939Z,96237.81
2022-12-16T11:13:55.179Z,96241.63
2022-12-16T11:16:39.947Z,96241.34
2022-12-16T11:19:44.439Z,96241.75
2022-12-16T11:22:36.567Z,96237.97
2022-12-16T11:25:44.639Z,96243.78
2022-12-16T11:28:37.160Z,96250.66
2022-12-16T11:31:27.604Z,96250.69
2022-12-16T11:34:13.728Z,96257.06
2022-12-16T11:37:00.463Z,96252.38
2022-12-16T11:39:48.239Z,96253.81
2022-12-16T11:42:39.679Z,96260.13
2022-12-16T11:45:31.147Z,96256.91
2022-12-16T11:48:25.986Z,96259.75
2022-12-16T11:51:16.997Z,96260.22
2022-12-16T11:54:17.660Z,96266.16
2022-12-16T11:57:04.317Z,96262.91
2022-12-16T11:59:57.348Z,96268.66
2022-12-16T12:03:08.854Z,96272.28
2022-12-16T12:06:15.611Z,96273.66
2022-12-16T12:09:13.190Z,96278.84
2022-12-16T12:12:09.859Z,96279.41
2022-12-16T12:14:59.137Z,96283.63
2022-12-16T12:17:56.274Z,96280.94
2022-12-16T12:21:14.971Z,96279.53
2022-12-16T12:24:34.159Z,96280.78
2022-12-16T12:27:36.562Z,96291.34
2022-12-16T12:30:32.584Z,96289.00
2022-12-16T12:33:26.750Z,96284.03
2022-12-16T12:36:39.354Z,96291.41
2022-12-16T12:39:42.443Z,96299.59
2022-12-16T12:42:51.666Z,96308.88
2022-12-16T12:46:00.305Z,96310.81
2022-12-16T12:49:07.480Z,96312.34
2022-12-16T12:51:58.575Z,96311.22
2022-12-16T12:55:17.722Z,96313.91
2022-12-16T12:58:07.173Z,96315.91
2022-12-16T13:01:00.021Z,96314.16
2022-12-16T13:03:57.509Z,96327.41
2022-12-16T13:06:43.470Z,96324.75
2022-12-16T13:09:44.006Z,96329.19
2022-12-16T13:12:29.032Z,96333.16
2022-12-16T13:15:20.383Z,96341.22
2022-12-16T13:18:20.491Z,96334.34
2022-12-16T13:21:08.395Z,96340.56
2022-12-16T13:23:56.751Z,96346.63
2022-12-16T13:26:45.282Z,96343.34
2022-12-16T13:29:37.684Z,96340.47
2022-12-16T13:32:25.392Z,96348.09
2022-12-16T13:35:28.512Z,96353.34
2022-12-16T13:38:25.438Z,96358.59
2022-12-16T13:41:17.809Z,96373.34
2022-12-16T13:44:15.349Z,96370.75
2022-12-16T13:47:10.787Z,96374.22
2022-12-16T13:49:55.570Z,96383.94
2022-12-16T13:52:49.275Z,96373.50
2022-12-16T13:55:42.281Z,96385.69
2022-12-16T13:58:40.026Z,96393.53
2022-12-16T14:01:36.555Z,96400.03
2022-12-16T14:04:27.339Z,96402.00
2022-12-16T14:07:12.595Z,96401.69
2022-12-16T14:10:01.025Z,96407.91
2022-12-16T14:12:58.513Z,96413.28
2022-12-16T14:15:53.260Z,96412.63
2022-12-16T14:18:56.246Z,96428.13
2022-12-16T14:21:50.410Z,96429.78
2022-12-16T14:25:06.161Z,96432.28
2022-12-16T14:27:53.192Z,96429.59
2022-12-16T14:30:43.739Z,96441.75
2022-12-16T14:33:48.148Z,96448.69
2022-12-16T14:37:08.378Z,96442.81
2022-12-16T14:39:58.385Z,96453.47
2022-12-16T14:42:46.505Z,96459.66
2022-12-16T14:45:37.811Z,96463.97
2022-12-16T14:48:49.470Z,96459.59
2022-12-16T14:51:44.169Z,96474.63
2022-12-16T14:54:51.085Z,96474.28
2022-12-16T14:57:35.987Z,96480.34
2022-12-16T15:00:26.876Z,96497.72
2022-12-16T15:03:19.289Z,96496.03
2022-12-16T15:06:05.461Z,96501.63
2022-12-16T15:08:55.901Z,96501.00
2022-12-16T15:11:43.571Z,96501.19
2022-12-16T15:14:32.188Z,96513.34
2022-12-16T15:17:18.121Z,96507.44
2022-12-16T15:20:10.234Z,96513.50
2022-12-16T15:22:55.696Z,96518.63
2022-12-16T15:25:43.581Z,96525.69
2022-12-16T15:28:43.554Z,96526.50
2022-12-16T15:31:34.566Z,96526.50
2022-12-16T15:35:06.361Z,96536.78
2022-12-16T15:38:02.325Z,96524.75
2022-12-16T15:40:51.749Z,96533.50
2022-12-16T15:43:48.684Z,96544.66
2022-12-16T15:46:41.660Z,96546.34
2022-12-16T15:49:57.969Z,96549.06
2022-12-16T15:52:48.487Z,96559.63
2022-12-16T15:55:51.117Z,96564.75
2022-12-16T15:58:54.626Z,96567.25
2022-12-16T16:01:42.752Z,96568.91
2022-12-16T16:04:48.501Z,96572.44
2022-12-16T16:07:38.223Z,96569.09
2022-12-16T16:10:41.190Z,96581.19
2022-12-16T16:13:28.361Z,96577.06
2022-12-16T16:16:14.397Z,96579.47
2022-12-16T16:19:00.616Z,96583.00
2022-12-16T16:21:47.120Z,96590.00
2022-12-16T16:24:32.184Z,96596.97
2022-12-16T16:27:20.897Z,96599.66
2022-12-16T16:30:05.758Z,96595.31
2022-12-16T16:32:50.552Z,96603.06
2022-12-16T16:35:35.335Z,96614.38
2022-12-16T16:38:20.041Z,96625.50
2022-12-16T16:41:05.859Z,96622.13
2022-12-16T16:43:50.737Z,96617.09
2022-12-16T16:46:38.676Z,96622.41
2022-12-16T16:50:02.307Z,96618.19
2022-12-16T16:52:47.686Z,96625.78
2022-12-16T16:55:40.732Z,96633.53
2022-12-16T16:58:47.484Z,96630.94
2022-12-16T17:01:34.328Z,96637.81
2022-12-16T17:04:19.596Z,96650.78
2022-12-16T17:07:05.192Z,96643.13
2022-12-16T17:09:50.354Z,96641.31
2022-12-16T17:12:42.222Z,96652.47
2022-12-16T17:15:37.474Z,96650.88
2022-12-16T17:18:24.061Z,96655.38
2022-12-16T17:21:23.410Z,96660.47
2022-12-16T17:24:08.684Z,96664.72
2022-12-16T17:26:54.516Z,96671.56
2022-12-16T17:29:43.420Z,96681.25
2022-12-16T17:32:29.149Z,96678.72
2022-12-16T17:35:14.571Z,96689.94
2022-12-16T17:37:59.905Z,96697.63
2022-12-16T17:40:45.505Z,96702.75
2022-12-16T17:43:31.138Z,96701.09
2022-12-16T17:46:18.740Z,96706.19
2022-12-16T17:49:03.808Z,96699.25
2022-12-16T17:51:48.729Z,96695.97
2022-12-16T17:54:34.005Z,96703.66
2022-12-16T17:57:18.744Z,96707.22
2022-12-16T18:00:04.071Z,96707.09
2022-12-16T18:02:48.932Z,96717.47
2022-12-16T18:05:41.141Z,96711.63
2022-12-16T18:08:29.618Z,96720.97
2022-12-16T18:11:16.625Z,96724.47
2022-12-16T18:14:02.047Z,96721.13
2022-12-16T18:16:46.946Z,96726.28
2022-12-16T18:19:32.919Z,96730.47
2022-12-16T18:22:18.396Z,96735.66
2022-12-16T18:25:03.691Z,96737.47
2022-12-16T18:27:49.494Z,96731.47
2022-12-16T18:30:34.898Z,96736.81
2022-12-16T18:33:20.196Z,96750.69
2022-12-16T18:36:05.071Z,96753.97
2022-12-16T18:38:50.222Z,96758.44
2022-12-16T18:41:40.569Z,96761.00
2022-12-16T18:44:28.955Z,96757.50
2022-12-16T18:47:24.397Z,96761.06
2022-12-16T18:50:09.285Z,96759.16
2022-12-16T18:52:54.161Z,96765.34
2022-12-16T18:55:38.979Z,96772.38
2022-12-16T19:01:29.844Z,96774.78
2022-12-16T19:04:15.987Z,96780.09
2022-12-16T19:07:01.803Z,96787.63
2022-12-16T19:09:47.114Z,96791.75
2022-12-16T19:12:31.918Z,96791.13
2022-12-16T19:15:16.598Z,96804.06
2022-12-16T19:18:01.384Z,96802.31
2022-12-16T19:20:46.165Z,96792.91
2022-12-16T19:23:34.432Z,96813.63
2022-12-16T19:26:20.672Z,96815.28
2022-12-16T19:29:05.922Z,96813.56
2022-12-16T19:31:51.786Z,96811.78
2022-12-16T19:34:36.753Z,96813.47
2022-12-16T19:37:21.947Z,96817.81
2022-12-16T19:40:06.738Z,96825.69
2022-12-16T19:42:51.495Z,96823.03
2022-12-16T19:45:36.886Z,96829.19
2022-12-16T19:48:22.812Z,96827.34
2022-12-16T19:51:08.186Z,96829.06
2022-12-16T19:53:52.932Z,96835.94
2022-12-16T19:56:41.163Z,96843.63
2022-12-16T19:59:25.888Z,96848.69
2022-12-16T20:02:10.944Z,96856.44
2022-12-16T20:04:56.322Z,96859.81
2022-12-16T20:07:41.449Z,96864.97
2022-12-16T20:10:26.850Z,96871.97
2022-12-16T20:13:14.613Z,96872.81
2022-12-16T20:16:08.185Z,96877.88
2022-12-16T20:19:03.918Z,96880.47
2022-12-16T20:21:49.704Z,96882.13
2022-12-16T20:24:38.450Z,96894.13
2022-12-16T20:27:23.893Z,96890.81
2022-12-16T20:30:09.292Z,96895.97
2022-12-16T20:32:54.426Z,96900.41
2022-12-16T20:35:41.341Z,96903.69
2022-12-16T20:38:26.441Z,96904.53
2022-12-16T20:41:21.381Z,96915.78
2022-12-16T20:44:07.211Z,96921.69
2022-12-16T20:46:52.068Z,96919.03
2022-12-16T20:49:36.849Z,96919.91
2022-12-16T20:52:22.216Z,96917.38
2022-12-16T20:55:26.943Z,96929.44
2022-12-16T20:58:11.969Z,96934.59
2022-12-16T21:00:56.967Z,96938.84
2022-12-16T21:03:42.843Z,96944.72
2022-12-16T21:06:28.282Z,96953.47
2022-12-16T21:09:13.066Z,96960.28
2022-12-16T21:11:58.170Z,96961.22
2022-12-16T21:14:43.152Z,96958.63
2022-12-16T21:17:28.354Z,96966.22
2022-12-16T21:20:13.526Z,96964.56
2022-12-16T21:22:58.339Z,96978.28
2022-12-16T21:25:43.187Z,96968.81
2022-12-16T21:28:31.045Z,96970.53
2022-12-16T21:31:17.936Z,96977.28
2022-12-16T21:34:02.753Z,96985.03
2022-12-16T21:36:56.066Z,96991.16
2022-12-16T21:39:41.657Z,96983.31
2022-12-16T21:42:33.144Z,96991.13
2022-12-16T21:45:20.347Z,96991.09
2022-12-16T21:48:05.384Z,97002.16
2022-12-16T21:50:51.817Z,97003.13
2022-12-16T21:53:37.459Z,97008.38
2022-12-16T21:56:22.649Z,97009.25
2022-12-16T21:59:07.415Z,97009.91
2022-12-16T22:01:52.148Z,97016.75
2022-12-16T22:04:37.387Z,97018.44
2022-12-16T22:07:22.113Z,97029.69
2022-12-16T22:10:07.060Z,97034.75
2022-12-16T22:12:56.320Z,97036.50
2022-12-16T22:15:44.399Z,97043.38
2022-12-16T22:18:29.471Z,97034.00
2022-12-16T22:21:19.388Z,97041.75
2022-12-16T22:24:04.202Z,97046.03
2022-12-16T22:26:48.927Z,97048.56
2022-12-16T22:29:34.350Z,97054.56
2022-12-16T22:32:19.128Z,97051.19
2022-12-16T22:35:04.418Z,97048.59
2022-12-16T22:37:49.749Z,97062.59
2022-12-16T22:40:35.238Z,97065.97
2022-12-16T22:43:20.607Z,97065.97
2022-12-16T22:46:05.580Z,97067.91
2022-12-16T22:48:50.629Z,97077.16
2022-12-16T22:51:36.963Z,97073.72
2022-12-16T22:54:22.308Z,97083.09
2022-12-16T22:57:07.082Z,97084.97
2022-12-16T22:59:52.011Z,97090.19
2022-12-16T23:02:36.741Z,97090.19
2022-12-16T23:05:27.348Z,97097.06
2022-12-16T23:08:13.090Z,97091.09
2022-12-16T23:10:58.452Z,97103.28
2022-12-16T23:13:46.357Z,97100.66
2022-12-16T23:16:31.674Z,97103.28
2022-12-16T23:19:16.779Z,97099.84
2022-12-16T23:22:01.683Z,97100.72
2022-12-16T23:24:46.534Z,97109.34
2022-12-16T23:27:31.801Z,97110.19
2022-12-16T23:30:19.550Z,97106.03
2022-12-16T23:33:04.879Z,97111.19
2022-12-16T23:35:50.210Z,97118.16
2022-12-16T23:38:34.893Z,97120.78
2022-12-16T23:41:19.771Z,97123.38
2022-12-16T23:44:04.523Z,97130.19
2022-12-16T23:46:51.919Z,97127.63
2022-12-16T23:49:38.660Z,97132.72
2022-12-16T23:52:23.480Z,97136.16
2022-12-16T23:55:08.205Z,97142.28
2022-12-16T23:57:53.675Z,97145.81
